createdAt,value
2017-12-19T00:01:24.541Z,6.10
2017-12-19T00:03:52.006Z,6.10
2017-12-19T00:06:20.258Z,6.10
2017-12-19T00:08:47.769Z,6.10
2017-12-19T00:11:15.251Z,6.10
2017-12-19T00:13:42.721Z,6.10
2017-12-19T00:16:10.209Z,6.10
2017-12-19T00:18:37.669Z,6.10
2017-12-19T00:21:05.125Z,6.10
2017-12-19T00:23:32.614Z,6.20
2017-12-19T00:26:00.066Z,6.20
2017-12-19T00:28:27.530Z,6.30
2017-12-19T00:30:55.041Z,6.30
2017-12-19T00:33:22.505Z,6.30
2017-12-19T00:35:49.978Z,6.30
2017-12-19T00:40:51.235Z,6.40
2017-12-19T00:43:18.685Z,6.40
2017-12-19T00:45:46.150Z,6.50
2017-12-19T00:48:13.629Z,6.50
2017-12-19T00:50:41.871Z,6.50
2017-12-19T00:53:09.361Z,6.50
2017-12-19T00:55:37.594Z,6.50
2017-12-19T00:58:05.091Z,6.50
2017-12-19T01:00:33.350Z,6.50
2017-12-19T01:03:00.814Z,6.50
2017-12-19T01:05:28.278Z,6.50
2017-12-19T01:07:56.587Z,6.40
2017-12-19T01:10:24.043Z,6.40
2017-12-19T01:12:51.531Z,6.50
2017-12-19T01:15:18.982Z,6.50
2017-12-19T01:17:46.466Z,6.50
2017-12-19T01:20:13.923Z,6.50
2017-12-19T01:22:41.403Z,6.60
2017-12-19T01:25:08.914Z,6.60
2017-12-19T01:27:36.904Z,6.60
2017-12-19T01:30:04.385Z,6.60
2017-12-19T01:32:31.870Z,6.60
2017-12-19T01:35:01.013Z,6.60
2017-12-19T01:37:28.466Z,6.60
2017-12-19T01:39:55.954Z,6.60
2017-12-19T01:42:23.958Z,6.60
2017-12-19T01:44:51.437Z,6.60
2017-12-19T01:47:18.917Z,6.60
2017-12-19T01:49:46.465Z,6.70
2017-12-19T01:52:13.922Z,6.70
2017-12-19T01:54:41.597Z,6.70
2017-12-19T01:57:09.081Z,6.70
2017-12-19T01:59:36.542Z,6.70
2017-12-19T02:02:03.984Z,6.70
2017-12-19T02:04:31.470Z,6.70
2017-12-19T02:06:59.690Z,6.70
2017-12-19T02:09:27.158Z,6.70
2017-12-19T02:11:54.656Z,6.70
2017-12-19T02:14:22.257Z,6.70
2017-12-19T02:16:49.709Z,6.70
2017-12-19T02:19:17.209Z,6.70
2017-12-19T02:21:44.658Z,6.70
2017-12-19T02:24:12.123Z,6.70
2017-12-19T02:26:39.622Z,6.70
2017-12-19T02:29:07.081Z,6.70
2017-12-19T02:31:35.310Z,6.70
2017-12-19T02:34:02.806Z,6.60
2017-12-19T02:36:31.961Z,6.60
2017-12-19T02:38:59.422Z,6.60
2017-12-19T02:41:26.902Z,6.60
2017-12-19T02:43:55.151Z,6.50
2017-12-19T02:46:22.610Z,6.50
2017-12-19T02:48:50.137Z,6.50
2017-12-19T02:51:17.617Z,6.50
2017-12-19T02:53:45.171Z,6.50
2017-12-19T02:56:12.618Z,6.60
2017-12-19T02:58:40.094Z,6.60
2017-12-19T03:01:07.566Z,6.60
2017-12-19T03:03:35.045Z,6.60
2017-12-19T03:06:02.510Z,6.60
2017-12-19T03:08:30.002Z,6.60
2017-12-19T03:10:58.234Z,6.60
2017-12-19T03:13:25.715Z,6.60
2017-12-19T03:15:53.169Z,6.60
2017-12-19T03:18:20.662Z,6.60
2017-12-19T03:20:48.122Z,6.60
2017-12-19T03:23:15.602Z,6.60
2017-12-19T03:25:43.090Z,6.60
2017-12-19T03:28:10.548Z,6.60
2017-12-19T03:30:38.063Z,6.60
2017-12-19T03:33:06.749Z,6.60
2017-12-19T03:35:34.238Z,6.60
2017-12-19T03:38:02.621Z,6.60
2017-12-19T03:40:31.030Z,6.60
2017-12-19T03:42:59.323Z,6.60
2017-12-19T03:45:27.573Z,6.50
2017-12-19T03:47:55.058Z,6.50
2017-12-19T03:50:23.298Z,6.50
2017-12-19T03:52:50.765Z,6.50
2017-12-19T03:55:18.245Z,6.60
2017-12-19T03:57:46.470Z,6.60
2017-12-19T04:00:14.113Z,6.60
2017-12-19T04:02:41.595Z,6.70
2017-12-19T04:05:09.877Z,6.70
2017-12-19T04:07:37.334Z,6.70
2017-12-19T04:10:04.865Z,6.70
2017-12-19T04:12:33.253Z,6.80
2017-12-19T04:15:00.746Z,6.80
2017-12-19T04:17:28.228Z,6.70
2017-12-19T04:19:56.485Z,6.70
2017-12-19T04:22:23.968Z,6.70
2017-12-19T04:24:52.225Z,6.70
2017-12-19T04:27:19.686Z,6.70
2017-12-19T04:29:47.165Z,6.70
2017-12-19T04:32:15.385Z,6.70
2017-12-19T04:34:42.866Z,6.60
2017-12-19T04:37:10.326Z,6.70
2017-12-19T04:39:37.885Z,6.70
2017-12-19T04:42:05.346Z,6.60
2017-12-19T04:44:33.730Z,6.70
2017-12-19T04:47:01.211Z,6.70
2017-12-19T04:49:29.433Z,6.70
2017-12-19T04:51:57.009Z,6.70
2017-12-19T04:54:25.151Z,6.70
2017-12-19T04:56:52.602Z,6.80
2017-12-19T04:59:20.069Z,6.80
2017-12-19T05:01:47.558Z,6.80
2017-12-19T05:04:15.018Z,6.80
2017-12-19T05:06:42.498Z,6.80
2017-12-19T05:09:10.000Z,6.80
2017-12-19T05:11:37.454Z,6.80
2017-12-19T05:14:04.933Z,6.80
2017-12-19T05:16:32.389Z,6.80
2017-12-19T05:18:59.869Z,6.80
2017-12-19T05:21:27.359Z,6.80
2017-12-19T05:23:54.817Z,6.80
2017-12-19T05:26:22.273Z,6.80
2017-12-19T05:28:49.769Z,6.90
2017-12-19T05:31:17.254Z,6.90
2017-12-19T05:33:44.714Z,6.90
2017-12-19T05:36:13.113Z,6.90
2017-12-19T05:38:40.572Z,6.90
2017-12-19T05:41:08.050Z,6.90
2017-12-19T05:43:35.529Z,6.90
2017-12-19T05:46:03.015Z,6.90
2017-12-19T05:48:30.481Z,6.90
2017-12-19T05:50:58.721Z,6.90
2017-12-19T05:53:26.182Z,6.90
2017-12-19T05:55:53.666Z,6.90
2017-12-19T05:58:21.130Z,6.90
2017-12-19T06:00:49.398Z,7.00
2017-12-19T06:03:16.857Z,7.00
2017-12-19T06:05:44.317Z,7.00
2017-12-19T06:08:11.902Z,7.00
2017-12-19T06:10:39.404Z,7.00
2017-12-19T06:13:06.883Z,7.10
2017-12-19T06:15:34.368Z,7.10
2017-12-19T06:18:01.862Z,7.10
2017-12-19T06:20:30.098Z,7.10
2017-12-19T06:22:57.560Z,7.10
2017-12-19T06:25:25.986Z,7.20
2017-12-19T06:27:53.447Z,7.20
2017-12-19T06:30:21.698Z,7.20
2017-12-19T06:32:49.157Z,7.20
2017-12-19T06:35:16.614Z,7.20
2017-12-19T06:37:44.093Z,7.20
2017-12-19T06:40:11.549Z,7.20
2017-12-19T06:42:39.026Z,7.20
2017-12-19T06:45:06.485Z,7.10
2017-12-19T06:47:33.978Z,7.00
2017-12-19T06:50:01.453Z,6.90
2017-12-19T06:52:28.933Z,6.90
2017-12-19T06:54:57.186Z,6.90
2017-12-19T06:57:24.679Z,6.90
2017-12-19T06:59:52.925Z,7.00
2017-12-19T07:02:20.381Z,7.00
2017-12-19T07:04:47.851Z,7.10
2017-12-19T07:07:15.389Z,7.10
2017-12-19T07:09:43.614Z,7.10
2017-12-19T07:12:11.090Z,7.10
2017-12-19T07:14:38.581Z,7.20
2017-12-19T07:17:06.968Z,7.20
2017-12-19T07:19:34.430Z,7.20
2017-12-19T07:22:01.909Z,7.20
2017-12-19T07:24:30.172Z,7.20
2017-12-19T07:26:57.653Z,7.30
2017-12-19T07:29:25.986Z,7.20
2017-12-19T07:31:53.442Z,7.20
2017-12-19T07:34:20.934Z,7.20
2017-12-19T07:36:48.409Z,7.20
2017-12-19T07:39:15.869Z,7.20
2017-12-19T07:41:43.349Z,7.20
2017-12-19T07:44:10.845Z,7.20
2017-12-19T07:46:39.082Z,7.20
2017-12-19T07:49:06.577Z,7.20
2017-12-19T07:51:34.048Z,7.20
2017-12-19T07:54:01.509Z,7.20
2017-12-19T07:56:29.781Z,7.20
2017-12-19T07:58:57.320Z,7.20
2017-12-19T08:01:24.778Z,7.10
2017-12-19T08:03:52.261Z,7.10
2017-12-19T08:06:19.730Z,7.10
2017-12-19T08:08:47.223Z,7.10
2017-12-19T08:11:16.855Z,7.10
2017-12-19T08:13:44.333Z,7.10
2017-12-19T08:16:11.816Z,7.10
2017-12-19T08:18:39.289Z,7.10
2017-12-19T08:21:08.466Z,7.10
2017-12-19T08:23:35.953Z,7.10
2017-12-19T08:26:04.199Z,7.00
2017-12-19T08:28:31.720Z,7.00
2017-12-19T08:30:59.189Z,7.00
2017-12-19T08:33:26.673Z,7.00
2017-12-19T08:35:54.202Z,7.00
2017-12-19T08:38:21.686Z,7.10
2017-12-19T08:40:49.176Z,7.10
2017-12-19T08:43:17.399Z,7.20
2017-12-19T08:45:44.866Z,7.20
2017-12-19T08:48:12.342Z,7.20
2017-12-19T08:50:39.833Z,7.30
2017-12-19T08:53:09.044Z,7.40
2017-12-19T08:55:36.535Z,7.30
2017-12-19T08:58:04.051Z,7.40
2017-12-19T09:00:32.313Z,7.40
2017-12-19T09:02:59.785Z,7.40
2017-12-19T09:05:28.021Z,7.50
2017-12-19T09:07:56.268Z,7.50
2017-12-19T09:10:23.724Z,7.40
2017-12-19T09:12:51.222Z,7.50
2017-12-19T09:15:18.675Z,7.50
2017-12-19T09:17:46.150Z,7.40
2017-12-19T09:20:13.629Z,7.50
2017-12-19T09:22:41.871Z,7.50
2017-12-19T09:25:09.716Z,7.50
2017-12-19T09:27:37.182Z,7.50
2017-12-19T09:30:04.670Z,7.60
2017-12-19T09:32:32.142Z,7.60
2017-12-19T09:35:00.401Z,7.70
2017-12-19T09:37:27.865Z,7.70
2017-12-19T09:39:55.797Z,7.80
2017-12-19T09:42:23.674Z,7.80
2017-12-19T09:44:51.126Z,7.90
2017-12-19T09:47:18.628Z,8.00
2017-12-19T09:49:46.591Z,8.00
2017-12-19T09:52:14.045Z,8.10
2017-12-19T09:54:41.528Z,8.10
2017-12-19T09:57:11.039Z,8.20
2017-12-19T09:59:39.262Z,8.20
2017-12-19T10:02:06.737Z,8.20
2017-12-19T10:04:34.197Z,8.30
2017-12-19T10:07:01.677Z,8.40
2017-12-19T10:09:29.902Z,8.50
2017-12-19T10:11:57.361Z,8.50
2017-12-19T10:14:24.830Z,8.50
2017-12-19T10:16:52.648Z,8.50
2017-12-19T10:19:20.227Z,8.50
2017-12-19T10:21:47.678Z,8.50
2017-12-19T10:24:15.147Z,8.50
2017-12-19T10:26:42.633Z,8.50
2017-12-19T10:29:11.029Z,8.50
2017-12-19T10:31:38.499Z,8.50
2017-12-19T10:34:05.991Z,8.50
2017-12-19T10:36:33.466Z,8.50
2017-12-19T10:39:00.926Z,8.50
2017-12-19T10:41:28.423Z,8.50
2017-12-19T10:43:55.891Z,8.50
2017-12-19T10:46:23.369Z,8.60
2017-12-19T10:48:50.959Z,8.70
2017-12-19T10:51:18.414Z,8.70
2017-12-19T10:53:45.875Z,8.90
2017-12-19T10:56:13.422Z,8.90
2017-12-19T10:58:41.832Z,9.00
2017-12-19T11:01:09.348Z,9.10
2017-12-19T11:03:37.602Z,9.10
2017-12-19T11:06:05.065Z,9.10
2017-12-19T11:08:32.522Z,9.10
2017-12-19T11:11:00.004Z,9.20
2017-12-19T11:13:27.497Z,9.10
2017-12-19T11:15:54.951Z,9.10
2017-12-19T11:18:22.486Z,9.10
2017-12-19T11:20:49.962Z,9.00
2017-12-19T11:23:19.046Z,9.00
2017-12-19T11:25:46.538Z,9.00
2017-12-19T11:28:14.799Z,9.10
2017-12-19T11:30:42.260Z,9.10
2017-12-19T11:33:10.017Z,9.10
2017-12-19T11:35:37.505Z,9.10
2017-12-19T11:38:05.726Z,9.20
2017-12-19T11:40:33.194Z,9.20
2017-12-19T11:43:00.671Z,9.20
2017-12-19T11:45:28.842Z,9.20
2017-12-19T11:47:56.321Z,9.20
2017-12-19T11:50:23.818Z,9.20
2017-12-19T11:52:51.307Z,9.20
2017-12-19T11:55:18.861Z,9.20
2017-12-19T11:57:46.352Z,9.30
2017-12-19T12:00:13.819Z,9.30
2017-12-19T12:02:41.313Z,9.30
2017-12-19T12:05:09.534Z,9.40
2017-12-19T12:07:37.023Z,9.40
2017-12-19T12:10:04.494Z,9.40
2017-12-19T12:12:31.967Z,9.40
2017-12-19T12:14:59.422Z,9.30
2017-12-19T12:17:27.665Z,9.20
2017-12-19T12:19:55.138Z,9.20
2017-12-19T12:22:22.647Z,9.30
2017-12-19T12:24:50.131Z,9.30
2017-12-19T12:27:17.601Z,9.40
2017-12-19T12:29:45.102Z,9.50
2017-12-19T12:32:13.361Z,9.40
2017-12-19T12:34:40.828Z,9.40
2017-12-19T12:37:09.086Z,9.50
2017-12-19T12:39:36.554Z,9.50
2017-12-19T12:42:04.061Z,9.50
2017-12-19T12:44:31.523Z,9.50
2017-12-19T12:46:58.978Z,9.50
2017-12-19T12:49:26.458Z,9.40
2017-12-19T12:51:53.942Z,9.40
2017-12-19T12:54:21.426Z,9.40
2017-12-19T12:56:49.006Z,9.40
2017-12-19T12:59:16.496Z,9.40
2017-12-19T13:01:44.035Z,9.40
2017-12-19T13:04:11.439Z,9.40
2017-12-19T13:06:38.913Z,9.40
2017-12-19T13:09:06.485Z,9.40
2017-12-19T13:11:33.945Z,9.30
2017-12-19T13:14:01.433Z,9.30
2017-12-19T13:16:28.881Z,9.30
2017-12-19T13:18:56.339Z,9.30
2017-12-19T13:21:23.834Z,9.30
2017-12-19T13:23:51.291Z,9.30
2017-12-19T13:26:18.753Z,9.20
2017-12-19T13:28:47.030Z,9.20
2017-12-19T13:31:14.486Z,9.20
2017-12-19T13:33:41.945Z,9.20
2017-12-19T13:36:09.427Z,9.20
2017-12-19T13:38:37.806Z,9.10
2017-12-19T13:41:06.038Z,9.10
2017-12-19T13:43:33.518Z,9.10
2017-12-19T13:46:01.134Z,9.10
2017-12-19T13:48:28.710Z,9.20
2017-12-19T13:50:56.162Z,9.20
2017-12-19T13:53:23.638Z,9.20
2017-12-19T13:55:51.093Z,9.20
2017-12-19T13:58:18.586Z,9.20
2017-12-19T14:00:46.046Z,9.20
2017-12-19T14:03:14.422Z,9.20
2017-12-19T14:05:42.753Z,9.20
2017-12-19T14:08:10.243Z,9.20
2017-12-19T14:10:37.721Z,9.20
2017-12-19T14:13:05.175Z,9.10
2017-12-19T14:15:32.635Z,9.10
2017-12-19T14:18:00.131Z,9.10
2017-12-19T14:20:27.578Z,9.10
2017-12-19T14:22:55.039Z,9.00
2017-12-19T14:25:22.529Z,9.00
2017-12-19T14:27:49.992Z,9.00
2017-12-19T14:30:17.445Z,9.00
2017-12-19T14:32:45.503Z,8.90
2017-12-19T14:35:12.961Z,9.00
2017-12-19T14:37:40.423Z,9.00
2017-12-19T14:40:07.902Z,9.00
2017-12-19T14:42:35.366Z,9.00
2017-12-19T14:45:02.846Z,9.00
2017-12-19T14:47:30.346Z,9.00
2017-12-19T14:49:57.894Z,8.90
2017-12-19T14:52:25.350Z,8.90
2017-12-19T14:54:52.797Z,8.90
2017-12-19T14:57:21.040Z,8.80
2017-12-19T14:59:48.529Z,8.80
2017-12-19T15:02:15.985Z,8.80
2017-12-19T15:04:44.205Z,8.70
2017-12-19T15:07:11.681Z,8.70
2017-12-19T15:09:39.182Z,8.70
2017-12-19T15:12:06.639Z,8.60
2017-12-19T15:14:34.093Z,8.70
2017-12-19T15:17:01.570Z,8.70
2017-12-19T15:19:29.025Z,8.70
2017-12-19T15:21:56.516Z,8.70
2017-12-19T15:24:23.970Z,8.70
2017-12-19T15:26:51.446Z,8.70
2017-12-19T15:29:18.975Z,8.60
2017-12-19T15:31:46.516Z,8.60
2017-12-19T15:34:13.970Z,8.60
2017-12-19T15:36:41.461Z,8.50
2017-12-19T15:39:08.923Z,8.50
2017-12-19T15:41:36.374Z,8.50
2017-12-19T15:44:03.853Z,8.40
2017-12-19T15:46:31.330Z,8.40
2017-12-19T15:48:58.818Z,8.40
2017-12-19T15:51:27.042Z,8.40
2017-12-19T15:53:54.518Z,8.40
2017-12-19T15:56:21.971Z,8.40
2017-12-19T15:58:49.491Z,8.40
2017-12-19T16:01:17.045Z,8.40
2017-12-19T16:03:44.529Z,8.40
2017-12-19T16:06:11.991Z,8.40
2017-12-19T16:08:39.470Z,8.40
2017-12-19T16:11:06.934Z,8.30
2017-12-19T16:13:34.407Z,8.30
2017-12-19T16:16:01.900Z,8.30
2017-12-19T16:18:29.355Z,8.30
2017-12-19T16:20:56.809Z,8.30
2017-12-19T16:23:24.303Z,8.20
2017-12-19T16:25:51.778Z,8.20
2017-12-19T16:28:19.254Z,8.20
2017-12-19T16:30:47.553Z,8.20
2017-12-19T16:33:15.010Z,8.20
2017-12-19T16:35:42.495Z,8.20
2017-12-19T16:38:09.982Z,8.20
2017-12-19T16:40:37.438Z,8.20
2017-12-19T16:43:04.915Z,8.20
2017-12-19T16:45:32.394Z,8.20
2017-12-19T16:48:00.619Z,8.20
2017-12-19T16:50:28.166Z,8.20
2017-12-19T16:52:55.650Z,8.20
2017-12-19T16:55:23.166Z,8.20
2017-12-19T16:57:51.465Z,8.30
2017-12-19T17:00:18.936Z,8.30
2017-12-19T17:02:48.099Z,8.30
2017-12-19T17:05:15.593Z,8.30
2017-12-19T17:07:43.077Z,8.20
2017-12-19T17:10:10.539Z,8.20
2017-12-19T17:12:38.029Z,8.30
2017-12-19T17:15:05.478Z,8.30
2017-12-19T17:17:32.953Z,8.30
2017-12-19T17:20:00.534Z,8.40
2017-12-19T17:22:28.043Z,8.40
2017-12-19T17:24:55.809Z,8.40
2017-12-19T17:27:23.303Z,8.50
2017-12-19T17:29:51.059Z,8.50
2017-12-19T17:32:18.647Z,8.60
2017-12-19T17:34:46.276Z,8.60
2017-12-19T17:37:13.857Z,8.60
2017-12-19T17:39:41.681Z,8.60
2017-12-19T17:42:09.222Z,8.60
2017-12-19T17:44:36.826Z,8.50
2017-12-19T17:47:04.354Z,8.50
2017-12-19T17:49:31.855Z,8.50
2017-12-19T17:51:59.326Z,8.40
2017-12-19T17:54:26.810Z,8.40
2017-12-19T17:56:54.287Z,8.40
2017-12-19T17:59:22.658Z,8.30
2017-12-19T18:01:50.131Z,8.30
2017-12-19T18:04:17.582Z,8.30
2017-12-19T18:06:45.070Z,8.30
2017-12-19T18:09:13.319Z,8.40
2017-12-19T18:11:41.591Z,8.30
2017-12-19T18:14:09.072Z,8.40
2017-12-19T18:16:37.303Z,8.40
2017-12-19T18:19:04.826Z,8.40
2017-12-19T18:21:33.046Z,8.40
2017-12-19T18:24:00.542Z,8.40
2017-12-19T18:26:29.892Z,8.30
2017-12-19T18:28:57.349Z,8.30
2017-12-19T18:31:24.861Z,8.20
2017-12-19T18:33:52.329Z,8.20
2017-12-19T18:36:20.422Z,8.20
2017-12-19T18:38:48.453Z,8.20
2017-12-19T18:41:15.914Z,8.20
2017-12-19T18:43:44.136Z,8.20
2017-12-19T18:46:11.631Z,8.20
2017-12-19T18:48:39.110Z,8.10
2017-12-19T18:51:07.369Z,8.10
2017-12-19T18:53:34.826Z,8.10
2017-12-19T18:56:02.290Z,8.10
2017-12-19T18:58:29.786Z,8.00
2017-12-19T19:00:59.569Z,8.10
2017-12-19T19:03:26.993Z,8.10
2017-12-19T19:05:57.186Z,8.10
2017-12-19T19:08:24.643Z,8.20
2017-12-19T19:10:52.100Z,8.20
2017-12-19T19:13:19.582Z,8.20
2017-12-19T19:15:47.089Z,8.20
2017-12-19T19:18:14.539Z,8.20
2017-12-19T19:20:42.017Z,8.20
2017-12-19T19:23:09.907Z,8.20
2017-12-19T19:25:37.717Z,8.20
2017-12-19T19:28:06.634Z,8.20
2017-12-19T19:30:34.152Z,8.20
2017-12-19T19:33:02.411Z,8.20
2017-12-19T19:35:29.906Z,8.20
2017-12-19T19:37:57.397Z,8.20
2017-12-19T19:40:25.629Z,8.20
2017-12-19T19:42:54.346Z,8.20
2017-12-19T19:45:22.571Z,8.20
2017-12-19T19:47:50.027Z,8.20
2017-12-19T19:50:17.529Z,8.20
2017-12-19T19:52:45.501Z,8.20
2017-12-19T19:55:13.038Z,8.20
2017-12-19T19:57:40.577Z,8.20
2017-12-19T20:00:08.163Z,8.10
2017-12-19T20:02:35.719Z,8.10
2017-12-19T20:05:03.351Z,8.10
2017-12-19T20:07:30.836Z,8.10
2017-12-19T20:09:58.351Z,8.10
2017-12-19T20:12:25.833Z,8.10
2017-12-19T20:14:53.294Z,8.10
2017-12-19T20:17:20.794Z,8.10
2017-12-19T20:19:48.254Z,8.10
2017-12-19T20:22:15.714Z,8.10
2017-12-19T20:24:43.202Z,8.20
2017-12-19T20:27:10.690Z,8.20
2017-12-19T20:29:38.178Z,8.10
2017-12-19T20:32:05.634Z,8.20
2017-12-19T20:34:33.117Z,8.10
2017-12-19T20:37:00.569Z,8.10
2017-12-19T20:39:28.028Z,8.00
2017-12-19T20:41:55.501Z,8.00
2017-12-19T20:44:22.984Z,8.00
2017-12-19T20:46:50.442Z,8.00
2017-12-19T20:49:17.927Z,8.00
2017-12-19T20:51:45.421Z,8.00
2017-12-19T20:54:13.646Z,8.00
2017-12-19T20:56:41.130Z,8.00
2017-12-19T20:59:08.624Z,8.10
2017-12-19T21:01:36.865Z,8.00
2017-12-19T21:04:04.363Z,8.00
2017-12-19T21:06:32.596Z,8.00
2017-12-19T21:09:00.097Z,8.00
2017-12-19T21:11:28.382Z,8.00
2017-12-19T21:13:55.840Z,8.00
2017-12-19T21:16:24.447Z,8.00
2017-12-19T21:18:51.966Z,8.00
2017-12-19T21:21:19.431Z,8.00
2017-12-19T21:23:47.703Z,8.00
2017-12-19T21:26:15.956Z,8.00
2017-12-19T21:28:43.440Z,8.00
2017-12-19T21:31:11.686Z,8.00
2017-12-19T21:33:39.141Z,8.00
2017-12-19T21:36:06.630Z,7.90
2017-12-19T21:38:34.959Z,7.90
2017-12-19T21:41:02.430Z,7.90
2017-12-19T21:43:29.897Z,7.90
2017-12-19T21:45:57.395Z,7.90
2017-12-19T21:48:24.887Z,7.90
2017-12-19T21:50:52.345Z,7.90
2017-12-19T21:53:19.830Z,7.80
2017-12-19T21:55:47.294Z,7.90
2017-12-19T21:58:14.753Z,7.90
2017-12-19T22:00:42.236Z,7.90
2017-12-19T22:03:10.467Z,7.90
2017-12-19T22:05:37.966Z,7.90
2017-12-19T22:08:06.308Z,7.90
2017-12-19T22:10:33.862Z,7.90
2017-12-19T22:13:01.318Z,7.90
2017-12-19T22:15:28.775Z,8.00
2017-12-19T22:17:56.274Z,8.00
2017-12-19T22:20:23.738Z,8.00
2017-12-19T22:22:52.001Z,8.00
2017-12-19T22:25:19.478Z,8.00
2017-12-19T22:27:47.722Z,8.00
2017-12-19T22:30:15.229Z,8.00
2017-12-19T22:32:42.689Z,8.00
2017-12-19T22:35:10.175Z,8.00
2017-12-19T22:37:37.658Z,8.00
2017-12-19T22:40:05.129Z,8.00
2017-12-19T22:42:32.610Z,8.00
2017-12-19T22:45:00.081Z,8.00
2017-12-19T22:47:27.585Z,8.00
2017-12-19T22:49:55.970Z,7.90
2017-12-19T22:52:23.986Z,7.90
2017-12-19T22:54:51.466Z,7.90
2017-12-19T22:57:18.985Z,7.90
2017-12-19T22:59:47.231Z,7.80
2017-12-19T23:02:14.707Z,7.80
2017-12-19T23:04:42.192Z,7.80
2017-12-19T23:07:09.698Z,7.80
2017-12-19T23:09:37.158Z,7.80
2017-12-19T23:12:05.449Z,7.80
2017-12-19T23:14:32.907Z,7.70
2017-12-19T23:17:00.382Z,7.70
2017-12-19T23:19:27.870Z,7.70
2017-12-19T23:21:55.350Z,7.70
2017-12-19T23:24:22.856Z,7.70
2017-12-19T23:26:50.375Z,7.70
2017-12-19T23:29:17.900Z,7.70
2017-12-19T23:31:46.299Z,7.70
2017-12-19T23:34:13.786Z,7.70
2017-12-19T23:36:41.259Z,7.80
2017-12-19T23:39:08.750Z,7.80
2017-12-19T23:41:36.969Z,7.90
2017-12-19T23:44:04.440Z,7.90
2017-12-19T23:46:31.948Z,7.90
2017-12-19T23:49:00.169Z,8.00
2017-12-19T23:51:27.622Z,8.00
2017-12-19T23:53:55.106Z,8.00
2017-12-19T23:56:22.582Z,8.00
2017-12-19T23:58:50.070Z,8.00
